Powell, Mississippi
Current Conditions -  °F | °C
As of 3:15 PM on Monday 22 Dec 2014 (Local Time) from KUTA Reporting Station
Light Rain Light Rain  
Wind Chill: 55°   Ceiling: 1600
Heat Index: 55°   Visibility: 4mi
Dew Point: 54°   Wind: 16mph
Humidity: 94%   Direction: 140°SE
Pressure: 29.61"   Gusts: 24mph
Location:  34.5324°N, 90.3891°W
Report Text: KUTA 222115Z AUTO 14014G21KT 4SM -RA SCT007 BKN016 OVC043 13/12 A2961 RMK AO2 P0003
Loading
Personal Weather Stations






























Interactive Weather Map New forecast layout! Learn more

10-Day Weather Forecast

Advertisements
Track Severe Weather on mobile